Latest Weather Observations for Tunnack

IDT60801

Issued at 12:05 am EST Friday 3 October 2014 (issued every 30 minutes, with the page automatically refreshed every 10 minutes)

About weather observations | Map of weather stations | Latest weather observations for TAS | Other Formats
Station Details ID: 094195 Name: TUNNACK FIRE STATION Lat: -42.45 Lon: 147.46 Height: 461.5 m
Data from the previous 72 hours. | See also: Recent months at Tunnack
Date/Time
EST
Temp
°C
App
Temp
°C
Dew
Point
Rel
Hum
%
Delta-T
°C
Wind Press
QNH
hPa
Press
MSL
hPa
Rain
since 9 am
mm
Dir
 
Spd
km/h
Gust
km/h
Spd
kts
Gust
kts
03/12:00am 5.5 0.7 0.1 68 2.1 WSW 15 28 8 15 1018.1 1018.4 0.0
 
Date/Time
EST
Temp
°C
App
Temp
°C
Dew
Point
Rel
Hum
%
Delta-T
°C
Wind Press
QNH
hPa
Press
MSL
hPa
Rain
since 9 am
mm
Dir
 
Spd
km/h
Gust
km/h
Spd
kts
Gust
kts
02/11:30pm 5.6 0.8 0.2 68 2.1 WSW 15 26 8 14 1018.0 1018.3 0.0
02/11:00pm 5.3 0.1 -0.1 68 2.1 WSW 17 32 9 17 1017.9 1018.2 0.0
02/10:30pm 5.6 0.4 0.2 68 2.1 WSW 17 30 9 16 1017.9 1018.2 0.0
02/10:00pm 5.8 -0.4 0.0 66 2.3 SW 22 37 12 20 1017.8 1018.1 0.0
02/09:30pm 6.0 -0.1 0.1 66 2.3 WSW 22 39 12 21 1017.7 1018.0 0.0
02/09:00pm 5.9 -0.6 0.0 66 2.3 WSW 24 41 13 22 1017.6 1017.9 0.0
02/08:31pm 6.1 -1.2 0.0 65 2.4 WSW 28 46 15 25 1017.5 1017.8 0.0
02/08:30pm 6.2 -1.5 -0.1 64 2.5 WSW 30 46 16 25 1017.5 1017.8 0.0
02/08:00pm 6.5 0.0 0.6 66 2.4 WSW 24 37 13 20 1017.2 1017.5 0.0
02/07:30pm 6.8 1.1 0.5 64 2.6 SW 20 35 11 19 1016.6 1016.9 0.0
02/07:00pm 7.4 -0.3 0.2 60 2.9 WSW 30 50 16 27 1016.0 1016.3 0.0
02/06:44pm 7.5 0.3 0.5 61 2.9 WSW 28 46 15 25 1015.7 1016.0 0.0
02/06:30pm 7.6 0.8 0.6 61 2.9 WSW 26 43 14 23 1015.5 1015.8 0.0
02/06:10pm 7.9 0.7 0.6 60 3.0 WSW 28 48 15 26 1015.7 1016.0 0.0
02/06:00pm 8.0 0.8 0.7 60 3.0 WSW 28 43 15 23 1015.6 1015.9 0.0
02/05:30pm 8.8 0.9 0.8 57 3.3 WSW 32 46 17 25 1015.1 1015.4 0.0
02/05:00pm 9.9 1.4 1.0 54 3.8 W 35 54 19 29 1014.7 1014.9 0.0
02/04:38pm 11.0 3.5 1.3 51 4.2 W 30 48 16 26 1014.7 1014.9 0.0
02/04:30pm 11.0 3.1 1.0 50 4.3 WSW 32 48 17 26 1014.8 1015.0 0.0
02/04:03pm 11.8 3.3 0.9 47 4.7 W 35 54 19 29 1014.2 1014.5 0.0
02/04:00pm 12.0 3.2 1.6 49 4.5 W 37 54 20 29 1014.2 1014.5 0.0
02/03:30pm 13.1 5.5 2.9 50 4.6 W 32 50 17 27 1013.5 1013.8 0.0
02/03:05pm 13.7 7.0 3.5 50 4.7 WSW 28 46 15 25 1013.5 1013.8 0.0
02/03:00pm 13.8 7.5 3.9 51 4.6 WSW 26 46 14 25 1013.6 1013.9 0.0
02/02:34pm 13.2 6.4 3.0 50 4.6 WSW 28 50 15 27 1013.4 1013.7 0.0
02/02:30pm 13.9 6.8 3.4 49 4.9 WSW 30 46 16 25 1013.4 1013.7 0.0
02/02:06pm 14.0 7.0 4.3 52 4.6 WSW 30 48 16 26 1013.1 1013.3 0.0
02/02:00pm 13.9 6.8 3.7 50 4.7 WSW 30 46 16 25 1013.1 1013.3 0.0
02/01:39pm 13.4 6.6 3.2 50 4.7 WSW 28 54 15 29 1013.0 1013.2 0.0
02/01:30pm 14.3 7.3 4.3 51 4.7 WSW 30 43 16 23 1013.0 1013.2 0.0
02/01:00pm 13.1 4.6 3.2 51 4.5 WSW 37 56 20 30 1013.0 1013.2 0.0
02/12:30pm 13.8 6.2 4.1 52 4.5 WSW 33 54 18 29 1013.1 1013.3 0.0
02/12:12pm 14.0 7.4 4.3 52 4.6 WSW 28 52 15 28 1013.2 1013.4 0.0
02/12:00pm 13.5 6.6 4.4 54 4.3 WSW 30 44 16 24 1013.1 1013.3 0.0
02/11:30am 13.7 7.0 5.6 58 3.9 WSW 30 48 16 26 1012.8 1013.0 0.0
02/11:12am 13.1 5.9 5.0 58 3.8 WSW 32 56 17 30 1013.0 1013.2 0.0
02/11:00am 12.6 6.7 6.0 64 3.2 W 26 43 14 23 1013.0 1013.2 0.0
02/10:43am 13.0 6.1 6.6 65 3.1 W 32 50 17 27 1012.8 1013.0 0.0
02/10:30am 12.4 5.3 6.5 67 2.9 W 33 50 18 27 1012.8 1013.0 0.0
02/10:00am 12.5 5.3 6.1 65 3.1 W 33 46 18 25 1012.6 1012.8 0.0
02/09:30am 12.1 5.0 6.2 67 2.9 W 33 52 18 28 1012.5 1012.7 0.0
02/09:04am 11.3 5.2 6.8 74 2.2 W 28 46 15 25 1012.5 1012.7 0.0
02/09:00am 10.7 4.9 6.1 73 2.2 W 26 41 14 22 1012.6 1012.8 0.0
02/08:30am 10.3 5.0 4.9 69 2.5 W 22 35 12 19 1012.7 1012.9 0.0
02/08:09am 10.9 4.5 5.0 67 2.8 W 28 46 15 25 1012.3 1012.6 0.0
02/08:00am 11.3 5.7 5.4 67 2.8 W 24 46 13 25 1012.5 1012.7 0.0
02/07:31am 10.4 3.9 4.8 68 2.6 W 28 46 15 25 1012.1 1012.4 0.0
02/07:30am 10.5 3.7 5.1 69 2.5 W 30 46 16 25 1012.1 1012.4 0.0
02/07:00am 9.2 2.4 5.0 75 1.9 W 30 50 16 27 1011.7 1012.0 0.0
02/06:31am 8.5 1.5 4.1 74 2.0 W 30 48 16 26 1011.3 1011.5 0.0
02/06:30am 8.4 1.0 4.0 74 2.0 W 32 48 17 26 1011.3 1011.5 0.0
02/06:04am 8.3 0.7 4.1 75 1.9 W 33 59 18 32 1011.0 1011.2 0.0
02/06:00am 8.1 1.1 4.1 76 1.8 W 30 44 16 24 1010.9 1011.1 0.0
02/05:38am 8.1 0.6 4.3 77 1.7 W 33 61 18 33 1010.7 1010.9 0.0
02/05:30am 8.1 0.2 4.5 78 1.6 W 35 50 19 27 1010.5 1010.7 0.0
02/05:00am 7.9 1.0 4.8 81 1.4 W 30 50 16 27 1010.5 1010.7 0.0
02/04:30am 8.1 0.3 4.7 79 1.5 W 35 57 19 31 1010.3 1010.5 0.0
02/04:19am 8.0 0.2 5.1 82 1.3 WNW 35 54 19 29 1010.3 1010.5 0.0
02/04:00am 8.3 1.0 4.3 76 1.8 W 32 48 17 26 1010.2 1010.4 0.0
02/03:30am 8.3 0.4 4.5 77 1.7 W 35 59 19 32 1010.0 1010.3 0.0
02/03:00am 8.1 0.9 4.9 80 1.5 W 32 50 17 27 1010.4 1010.6 0.0
02/02:35am 8.3 1.1 4.9 79 1.6 W 32 50 17 27 1010.4 1010.6 0.0
02/02:30am 8.1 1.2 4.7 79 1.5 W 30 46 16 25 1010.6 1010.8 0.0
02/02:02am 8.3 -0.3 4.7 78 1.6 WNW 39 57 21 31 1010.7 1010.9 0.0
02/02:00am 8.5 -0.8 4.9 78 1.6 WNW 43 57 23 31 1010.7 1010.9 0.0
02/01:30am 8.3 -0.6 5.1 80 1.5 WNW 41 61 22 33 1011.0 1011.2 0.0
02/01:00am 8.5 0.0 5.3 80 1.5 WNW 39 61 21 33 1011.3 1011.5 0.0
02/12:49am 8.6 0.2 5.5 81 1.4 WNW 39 59 21 32 1011.4 1011.7 0.0
02/12:30am 8.5 -1.3 5.4 81 1.4 WNW 46 61 25 33 1011.4 1011.7 0.0
02/12:00am 8.5 -2.0 5.4 81 1.4 WNW 50 59 27 32 1011.6 1011.9 0.0
 
Date/Time
EST
Temp
°C
App
Temp
°C
Dew
Point
Rel
Hum
%
Delta-T
°C
Wind Press
QNH
hPa
Press
MSL
hPa
Rain
since 9 am
mm
Dir
 
Spd
km/h
Gust
km/h
Spd
kts
Gust
kts
01/11:37pm 8.5 2.0 4.9 78 1.6 W 28 48 15 26 1012.2 1012.5 0.0
01/11:30pm 8.5 2.8 4.7 77 1.7 WNW 24 41 13 22 1012.3 1012.6 0.0
01/11:16pm 9.0 1.7 4.4 73 2.1 WNW 32 50 17 27 1012.5 1012.7 0.0
01/11:00pm 8.6 1.2 5.2 79 1.6 WNW 33 50 18 27 1012.7 1012.9 0.0
01/10:31pm 8.5 1.1 5.1 79 1.6 NW 33 52 18 28 1012.7 1012.9 0.0
01/10:30pm 8.4 1.2 5.2 80 1.5 NW 32 46 17 25 1012.8 1013.0 0.0
01/10:00pm 8.2 0.4 4.8 79 1.5 NW 35 61 19 33 1013.1 1013.3 0.0
01/09:57pm 8.2 0.4 4.8 79 1.5 WNW 35 61 19 33 1013.1 1013.3 0.0
01/09:30pm 7.8 2.4 4.4 79 1.5 NW 22 32 12 17 1013.4 1013.7 0.0
01/09:00pm 7.4 2.6 4.4 81 1.3 NW 19 30 10 16 1013.8 1014.1 0.0
01/08:30pm 6.4 1.8 3.7 83 1.2 NW 17 28 9 15 1013.9 1014.2 0.0
01/08:00pm 6.6 1.6 3.4 80 1.4 NW 19 28 10 15 1014.3 1014.6 0.0
01/07:30pm 6.4 1.7 3.4 81 1.3 WNW 17 28 9 15 1014.4 1014.7 0.0
01/07:00pm 6.2 1.4 2.8 79 1.4 WNW 17 28 9 15 1014.8 1015.0 0.0
01/06:30pm 6.2 0.9 2.8 79 1.4 WNW 20 30 11 16 1015.1 1015.4 0.0
01/06:00pm 7.3 1.6 2.6 72 2.0 WNW 22 32 12 17 1014.9 1015.1 0.0
01/05:30pm 8.1 2.3 2.4 67 2.4 W 22 37 12 20 1014.9 1015.1 0.0
01/05:00pm 9.0 3.4 1.0 57 3.4 W 20 35 11 19 1014.9 1015.1 0.0
01/04:30pm 9.6 2.4 1.0 55 3.6 W 28 48 15 26 1014.3 1014.6 0.0
01/04:00pm 9.8 1.7 1.2 55 3.6 W 33 54 18 29 1014.1 1014.4 0.0
01/03:30pm 9.2 1.8 2.1 61 3.1 W 30 52 16 28 1013.8 1014.1 0.0
01/03:22pm 9.0 1.9 1.4 59 3.2 W 28 52 15 28 1013.8 1014.1 0.0
01/03:00pm 9.8 2.7 1.5 56 3.5 W 28 41 15 22 1013.8 1014.1 0.0
01/02:34pm 9.7 2.2 0.9 54 3.7 W 30 50 16 27 1013.9 1014.2 0.0
01/02:30pm 9.8 2.8 1.9 58 3.4 W 28 43 15 23 1013.9 1014.2 0.0
01/02:06pm 10.5 3.5 2.1 56 3.7 WSW 28 46 15 25 1013.8 1014.1 0.0
01/02:00pm 10.4 4.1 1.8 55 3.7 WSW 24 37 13 20 1014.0 1014.3 0.0
01/01:36pm 8.9 1.0 2.5 64 2.8 WNW 33 52 18 28 1013.8 1014.1 0.0
01/01:30pm 9.0 0.7 1.9 61 3.0 WNW 35 46 19 25 1013.7 1014.0 0.0
01/01:00pm 9.9 4.3 3.2 63 3.0 W 22 35 12 19 1013.8 1014.1 0.0
01/12:30pm 9.4 3.9 1.6 58 3.3 W 20 35 11 19 1013.6 1013.9 0.0
01/12:00pm 10.2 4.5 2.8 60 3.3 W 22 35 12 19 1013.5 1013.8 0.0
01/11:30am 9.0 3.0 3.4 68 2.5 WSW 24 37 13 20 1013.7 1014.0 0.0
01/11:00am 8.5 2.0 2.9 68 2.4 WSW 26 41 14 22 1013.4 1013.7 0.0
01/10:30am 7.9 1.7 2.0 66 2.5 WSW 24 41 13 22 1013.5 1013.8 0.0
01/10:00am 7.6 0.4 1.0 63 2.7 WSW 28 50 15 27 1013.7 1014.0 0.0
01/09:59am 7.9 0.8 1.3 63 2.8 WSW 28 50 15 27 1013.6 1014.2 0.0
01/09:30am 7.0 0.6 1.1 66 2.4 WSW 24 37 13 20 1013.5 1014.1 0.0
01/09:00am 7.6 2.2 2.5 70 2.2 WSW 20 32 11 17 1013.5 1014.1 11.0
01/08:30am 6.4 1.1 1.7 72 2.0 WSW 19 28 10 15 1013.2 1013.8 11.0
01/08:00am 5.9 0.6 1.8 75 1.7 W 19 30 10 16 1012.8 1013.3 11.0
01/07:30am 4.7 -1.0 0.8 76 1.6 W 20 28 11 15 1012.2 1012.8 11.0
01/07:00am 4.0 -1.5 0.9 80 1.2 W 19 28 10 15 1011.4 1012.0 11.0
01/06:30am 2.8 -2.4 0.2 83 1.0 W 17 26 9 14 1010.8 1011.3 11.0
01/06:00am 2.3 -3.3 0.0 85 0.9 W 19 28 10 15 1010.0 1010.6 11.0
01/05:30am 1.9 -3.9 0.0 87 0.7 W 20 28 11 15 1009.3 1009.8 11.0
01/05:00am 2.2 -3.1 -0.5 82 1.0 W 17 32 9 17 1008.7 1009.2 11.0
01/04:30am 1.9 -2.2 -0.2 86 0.8 W 11 19 6 10 1008.1 1008.6 11.0
01/04:00am 2.2 -2.2 0.6 89 0.6 W 13 19 7 10 1007.5 1008.0 11.0
01/03:30am 2.2 -3.0 0.4 88 0.7 W 17 26 9 14 1006.9 1007.4 11.0
01/03:00am 2.4 -1.3 0.1 85 0.9 WSW 9 13 5 7 1006.6 1007.1 11.0
01/02:30am 2.2 -2.6 -0.1 85 0.9 W 15 20 8 11 1006.0 1006.5 11.0
01/02:00am 2.2 -3.6 -0.2 84 0.9 W 20 32 11 17 1005.4 1005.9 11.0
01/01:30am 2.2 -3.0 -0.1 85 0.9 W 17 30 9 16 1005.1 1005.6 11.0
01/01:00am 2.0 -2.4 0.1 87 0.7 WSW 13 22 7 12 1004.8 1005.3 11.0
01/12:30am 2.4 -3.7 0.5 87 0.7 W 22 32 12 17 1004.2 1004.7 11.0
01/12:00am 2.5 -3.6 0.4 86 0.8 W 22 37 12 20 1003.9 1004.3 11.0
 
Date/Time
EST
Temp
°C
App
Temp
°C
Dew
Point
Rel
Hum
%
Delta-T
°C
Wind Press
QNH
hPa
Press
MSL
hPa
Rain
since 9 am
mm
Dir
 
Spd
km/h
Gust
km/h
Spd
kts
Gust
kts
30/11:30pm 2.6 -2.6 0.3 85 0.9 W 17 28 9 15 1003.3 1003.7 11.0
30/11:00pm 3.1 -2.6 0.7 84 0.9 WSW 20 33 11 18 1002.8 1003.3 11.0
30/10:30pm 2.9 -2.5 1.0 87 0.7 SW 19 28 10 15 1002.5 1003.0 11.0
30/10:00pm 3.0 -1.7 1.1 87 0.8 W 15 26 8 14 1002.0 1002.4 11.0
30/09:30pm 3.4 -1.6 1.4 87 0.8 WSW 17 32 9 17 1001.4 1001.8 11.0
30/09:00pm 3.4 -2.2 1.3 86 0.8 WSW 20 32 11 17 1001.0 1001.4 11.0
30/08:30pm 3.7 -2.7 1.1 83 1.0 WSW 24 39 13 21 1000.1 1000.5 11.0
30/08:00pm 3.8 -1.3 0.8 81 1.2 W 17 30 9 16 999.6 1000.0 11.0
30/07:30pm 4.1 -1.6 0.6 78 1.4 WSW 20 32 11 17 998.8 999.2 11.0
30/07:00pm 4.4 -5.2 1.1 79 1.3 WSW 41 70 22 38 998.2 998.6 11.0
30/06:59pm 4.5 -5.1 1.4 80 1.3 WSW 41 70 22 38 998.1 998.5 11.0
30/06:40pm 5.6 -1.0 4.4 92 0.5 WSW 28 50 15 27 997.3 997.7 10.8
30/06:30pm 5.7 0.0 4.8 94 0.4 W 24 39 13 21 997.1 997.5 10.8
30/06:00pm 6.4 1.8 5.5 94 0.4 W 19 30 10 16 996.2 996.6 10.6
30/05:30pm 7.2 1.3 5.7 90 0.7 W 26 43 14 23 995.8 996.2 10.2
30/05:00pm 8.6 3.8 5.7 82 1.4 WNW 20 35 11 19 994.6 994.9 10.0
30/04:30pm 8.6 3.5 6.2 85 1.1 NW 22 30 12 16 993.7 994.1 10.0
30/04:00pm 8.2 3.1 6.2 87 0.9 WNW 22 32 12 17 993.6 994.0 10.0
30/03:30pm 8.2 3.3 7.0 92 0.6 NW 22 33 12 18 993.5 993.9 10.0
30/03:00pm 7.6 2.8 7.5 99 0.0 WNW 22 30 12 16 994.3 994.6 9.8
30/02:30pm 7.4 1.8 7.3 99 0.0 W 26 41 14 22 994.6 994.9 8.6
30/02:00pm 8.3 2.8 7.5 95 0.4 W 26 43 14 23 994.5 994.8 7.2
30/01:47pm 9.2 2.1 8.0 92 0.6 W 35 57 19 31 994.6 994.9 6.8
30/01:44pm 10.2 3.0 9.3 94 0.5 NW 37 56 20 30 994.5 994.8 6.4
30/01:32pm 10.7 5.1 10.2 97 0.3 N 30 48 16 26 993.5 993.9 5.2
30/01:30pm 10.8 4.8 10.2 96 0.3 N 32 48 17 26 993.5 993.9 5.2
30/01:00pm 11.5 5.6 11.3 99 0.1 N 33 48 18 26 993.8 994.2 4.4
30/12:33pm 11.2 6.0 10.4 95 0.4 N 28 52 15 28 994.2 994.5 4.4
30/12:30pm 11.6 7.3 10.7 94 0.5 N 24 37 13 20 994.4 994.7 4.4
30/12:00pm 11.4 4.6 9.3 87 1.1 N 35 48 19 26 994.8 995.1 0.8
30/11:30am 12.6 5.7 8.9 78 1.9 N 35 46 19 25 995.0 995.4 0.0
30/11:20am 12.2 4.5 8.7 79 1.8 N 39 57 21 31 995.4 995.8 0.0
30/11:00am 12.8 3.6 8.1 73 2.4 N 46 61 25 33 995.5 995.9 0.0
30/10:31am 13.5 4.0 8.4 71 2.6 N 48 67 26 36 995.7 996.1 0.0
30/10:30am 13.4 3.4 8.0 70 2.7 N 50 67 27 36 995.7 996.1 0.0
30/10:00am 13.2 4.2 7.2 67 3.0 NNW 44 65 24 35 996.1 996.5 0.0
30/09:30am 12.9 6.3 8.4 74 2.3 N 33 54 18 29 997.1 997.5 0.0
30/09:00am 12.7 5.3 8.2 74 2.3 N 37 59 20 32 996.8 997.2 0.0
30/08:52am 12.4 5.2 7.5 72 2.4 N 35 54 19 29 997.2 997.6 0.0
30/08:30am 11.1 4.8 7.6 79 1.7 N 30 43 16 23 998.4 998.8 0.0
30/08:00am 10.2 3.5 8.3 88 1.0 N 33 50 18 27 998.9 999.3 0.0
30/07:30am 9.6 1.1 8.4 92 0.6 N 43 63 23 34 998.1 998.5 0.0
30/07:00am 8.9 1.4 7.8 93 0.5 N 37 56 20 30 998.8 999.2 0.0
30/06:50am 8.7 1.9 7.8 94 0.4 N 33 52 18 28 999.1 999.5 0.0
30/06:30am 8.3 2.1 6.3 87 0.9 N 28 37 15 20 999.4 999.8 0.0
30/06:00am 8.0 1.3 5.8 86 1.0 NNW 30 39 16 21 999.8 1000.2 0.0
30/05:30am 7.7 2.3 6.3 91 0.7 NNW 24 32 13 17 1000.0 1000.4 0.0
30/05:00am 7.8 2.1 6.7 93 0.5 NNW 26 33 14 18 1000.1 1000.5 0.0
30/04:30am 8.3 3.7 6.3 87 0.9 NNW 20 35 11 19 1000.3 1000.7 0.0
30/04:00am 8.5 2.9 5.3 80 1.5 N 24 33 13 18 1000.5 1001.0 0.0
30/03:30am 9.9 3.3 4.3 68 2.6 NNW 28 46 15 25 1001.0 1001.4 0.0
30/03:29am 9.7 3.1 4.3 69 2.5 NNW 28 46 15 25 1001.0 1001.4 0.0
30/03:00am 9.6 2.2 4.0 68 2.5 NW 32 43 17 23 1001.4 1001.8 0.0
30/02:46am 9.7 2.3 4.1 68 2.5 NW 32 50 17 27 1001.6 1002.0 0.0
30/02:30am 9.6 3.0 4.2 69 2.5 NNW 28 43 15 23 1001.8 1002.2 0.0
30/02:17am 10.2 3.2 3.9 65 2.9 NNW 30 52 16 28 1002.2 1002.7 0.0
30/02:00am 8.9 3.2 5.1 77 1.8 NNW 24 32 13 17 1002.6 1003.1 0.0
30/01:30am 8.7 3.3 4.5 75 1.9 N 22 33 12 18 1002.7 1003.2 0.0
30/01:00am 8.3 2.9 4.3 76 1.8 N 22 30 12 16 1003.1 1003.6 0.0
30/12:43am 9.4 1.7 3.4 66 2.7 NNW 33 52 18 28 1003.5 1003.9 0.0
30/12:30am 10.5 2.1 3.5 62 3.2 NNW 37 50 20 27 1003.3 1003.7 0.0

Other Formats:

Comma delimited format used in spreadsheet applications
http://www.bom.gov.au/fwo/IDT60801/IDT60801.94960.axf

JavaScript Object Notation format (JSON) in row-major order
http://www.bom.gov.au/fwo/IDT60801/IDT60801.94960.json